createdAt,value
2023-03-02T00:03:38.504Z,73.95
2023-03-02T00:08:44.145Z,73.90
2023-03-02T00:13:46.914Z,73.57
2023-03-02T00:18:49.649Z,73.18
2023-03-02T00:23:53.204Z,73.80
2023-03-02T00:28:58.075Z,73.42
2023-03-02T00:34:01.026Z,73.75
2023-03-02T00:39:05.018Z,73.44
2023-03-02T00:44:07.976Z,74.27
2023-03-02T00:49:11.449Z,75.05
2023-03-02T00:54:14.247Z,76.34
2023-03-02T00:59:28.963Z,77.71
2023-03-02T01:04:41.167Z,78.97
2023-03-02T01:09:44.810Z,79.77
2023-03-02T01:14:49.192Z,80.34
2023-03-02T01:19:54.043Z,80.84
2023-03-02T01:24:56.791Z,81.13
2023-03-02T01:29:59.656Z,81.56
2023-03-02T01:35:02.716Z,81.36
2023-03-02T01:40:07.186Z,81.09
2023-03-02T01:45:47.638Z,80.36
2023-03-02T01:50:54.654Z,79.65
2023-03-02T01:55:58.435Z,79.83
2023-03-02T02:01:01.628Z,79.93
2023-03-02T02:06:12.478Z,80.37
2023-03-02T02:11:15.312Z,81.20
2023-03-02T02:16:18.623Z,81.50
2023-03-02T02:21:22.812Z,80.94
2023-03-02T02:26:30.109Z,81.53
2023-03-02T02:31:38.420Z,81.37
2023-03-02T02:36:43.605Z,79.98
2023-03-02T02:41:51.575Z,80.07
2023-03-02T02:46:55.034Z,78.36
2023-03-02T02:51:58.396Z,77.92
2023-03-02T02:57:02.952Z,77.69
2023-03-02T03:02:06.248Z,75.77
2023-03-02T03:07:11.339Z,74.71
2023-03-02T03:12:17.634Z,73.89
2023-03-02T03:17:20.569Z,73.25
2023-03-02T03:22:28.885Z,71.88
2023-03-02T03:27:32.209Z,70.61
2023-03-02T03:32:37.093Z,71.28
2023-03-02T03:37:41.739Z,69.29
2023-03-02T03:42:45.292Z,69.18
2023-03-02T03:47:48.839Z,69.03
2023-03-02T03:52:52.027Z,67.92
2023-03-02T03:58:00.348Z,68.37
2023-03-02T04:03:03.517Z,66.98
2023-03-02T04:08:08.708Z,65.54
2023-03-02T04:13:12.540Z,64.50
2023-03-02T04:18:15.839Z,64.72
2023-03-02T04:23:18.677Z,64.95
2023-03-02T04:28:21.935Z,65.99
2023-03-02T04:33:25.416Z,66.61
2023-03-02T04:38:29.962Z,67.00
2023-03-02T04:43:33.099Z,67.28
2023-03-02T04:48:35.772Z,67.33
2023-03-02T04:53:38.455Z,68.21
2023-03-02T04:58:41.171Z,68.34
2023-03-02T05:03:44.068Z,69.43
2023-03-02T05:08:46.807Z,69.63
2023-03-02T05:13:55.568Z,69.29
2023-03-02T05:18:58.953Z,68.80
2023-03-02T05:24:01.727Z,68.12
2023-03-02T05:29:04.724Z,68.19
2023-03-02T05:34:10.020Z,67.92
2023-03-02T05:39:13.242Z,67.43
2023-03-02T05:44:15.971Z,68.75
2023-03-02T05:49:18.710Z,69.06
2023-03-02T05:54:21.716Z,69.54
2023-03-02T05:59:24.886Z,70.43
2023-03-02T06:04:27.532Z,71.60
2023-03-02T06:09:30.146Z,71.97
2023-03-02T06:14:33.144Z,72.60
2023-03-02T06:19:36.466Z,74.29
2023-03-02T06:24:39.151Z,75.09
2023-03-02T06:29:42.055Z,76.47
2023-03-02T06:34:44.728Z,77.02
2023-03-02T06:39:47.385Z,77.93
2023-03-02T06:44:51.727Z,79.04
2023-03-02T06:49:54.527Z,79.13
2023-03-02T06:54:57.220Z,79.34
2023-03-02T07:00:10.060Z,78.39
2023-03-02T07:05:13.698Z,78.13
2023-03-02T07:10:16.822Z,78.15
2023-03-02T07:15:20.415Z,77.34
2023-03-02T07:20:23.176Z,76.49
2023-03-02T07:25:26.070Z,75.16
2023-03-02T07:30:28.812Z,74.83
2023-03-02T07:35:31.553Z,74.13
2023-03-02T07:40:34.407Z,74.06
2023-03-02T07:45:38.103Z,73.92
2023-03-02T07:50:40.905Z,74.26
2023-03-02T07:55:43.586Z,73.44
2023-03-02T08:00:46.624Z,73.34
2023-03-02T08:05:49.259Z,73.46
2023-03-02T08:10:55.170Z,73.92
2023-03-02T08:16:04.959Z,73.84
2023-03-02T08:21:19.237Z,73.95
2023-03-02T08:26:22.216Z,74.70
2023-03-02T08:31:26.222Z,74.49
2023-03-02T08:36:28.983Z,74.62
2023-03-02T08:41:32.109Z,74.74
2023-03-02T08:46:35.094Z,75.05
2023-03-02T08:51:37.933Z,75.54
2023-03-02T08:56:40.863Z,74.98
2023-03-02T09:01:43.774Z,75.80
2023-03-02T09:06:46.623Z,76.00
2023-03-02T09:11:49.564Z,75.69
2023-03-02T09:16:53.210Z,75.96
2023-03-02T09:21:55.960Z,75.89
2023-03-02T09:26:58.724Z,75.84
2023-03-02T09:32:01.581Z,75.92
2023-03-02T09:37:04.396Z,76.36
2023-03-02T09:42:18.995Z,77.46
2023-03-02T09:47:37.898Z,76.97
2023-03-02T09:52:46.960Z,76.73
2023-03-02T09:57:50.072Z,76.59
2023-03-02T10:03:05.162Z,75.58
2023-03-02T10:08:21.121Z,74.57
2023-03-02T10:13:47.659Z,73.20
2023-03-02T10:19:06.725Z,73.01
2023-03-02T10:24:13.118Z,73.13
2023-03-02T10:29:34.043Z,73.42
2023-03-02T10:34:38.269Z,72.98
2023-03-02T10:39:41.456Z,73.59
2023-03-02T10:44:51.884Z,73.39
2023-03-02T10:49:56.580Z,73.92
2023-03-02T10:55:10.477Z,73.96
2023-03-02T11:00:24.728Z,74.30
2023-03-02T11:05:37.311Z,75.13
2023-03-02T11:11:01.587Z,74.70
2023-03-02T11:16:29.140Z,76.64
2023-03-02T11:21:44.330Z,77.54
2023-03-02T11:26:54.593Z,78.71
2023-03-02T11:32:01.597Z,78.80
2023-03-02T11:37:19.228Z,80.05
2023-03-02T11:42:23.090Z,81.23
2023-03-02T11:47:25.854Z,81.60
2023-03-02T11:52:31.227Z,81.57
2023-03-02T11:57:44.510Z,82.18
2023-03-02T12:03:01.926Z,81.90
2023-03-02T12:08:30.106Z,83.42
2023-03-02T12:13:40.673Z,82.64
2023-03-02T12:18:49.315Z,83.07
2023-03-02T12:23:52.701Z,82.94
2023-03-02T12:29:03.294Z,82.31
2023-03-02T12:34:22.655Z,80.72
2023-03-02T12:40:03.241Z,79.36
2023-03-02T12:45:34.022Z,78.92
2023-03-02T12:50:38.471Z,78.70
2023-03-02T12:55:41.559Z,78.24
2023-03-02T13:00:53.904Z,77.12
2023-03-02T13:06:14.340Z,76.56
2023-03-02T13:11:37.193Z,76.16
2023-03-02T13:16:39.906Z,76.73
2023-03-02T13:21:42.712Z,77.04
2023-03-02T13:26:56.069Z,76.80
2023-03-02T13:32:28.788Z,77.22
2023-03-02T13:37:41.132Z,77.14
2023-03-02T13:42:44.002Z,77.23
2023-03-02T13:47:46.729Z,77.20
2023-03-02T13:52:50.590Z,77.25
2023-03-02T13:57:54.443Z,78.82
2023-03-02T14:03:11.189Z,78.77
2023-03-02T14:14:56.771Z,77.92
2023-03-02T14:19:59.645Z,76.54
2023-03-02T14:25:02.487Z,75.65
2023-03-02T14:30:20.625Z,74.72
2023-03-02T14:35:24.704Z,75.12
2023-03-02T14:40:28.755Z,74.61
2023-03-02T14:45:31.453Z,74.19
2023-03-02T14:50:37.931Z,74.26
2023-03-02T14:55:41.192Z,74.57
2023-03-02T15:00:44.340Z,76.09
2023-03-02T15:06:00.262Z,76.50
2023-03-02T15:11:03.506Z,77.75
2023-03-02T15:16:06.810Z,78.84
2023-03-02T15:21:16.435Z,79.10
2023-03-02T15:26:19.335Z,79.58
2023-03-02T15:31:22.320Z,79.70
2023-03-02T15:36:26.741Z,81.39
2023-03-02T15:41:35.380Z,82.96
2023-03-02T15:46:41.951Z,83.88
2023-03-02T15:51:44.753Z,83.38
2023-03-02T15:56:54.415Z,82.73
2023-03-02T16:02:02.661Z,82.93
2023-03-02T16:07:07.768Z,82.51
2023-03-02T16:12:10.404Z,82.01
2023-03-02T16:17:13.123Z,80.92
2023-03-02T16:22:15.942Z,81.51
2023-03-02T16:27:18.632Z,82.66
2023-03-02T16:32:22.379Z,82.92
2023-03-02T16:37:25.069Z,83.40
2023-03-02T16:42:30.791Z,83.73
2023-03-02T16:47:33.481Z,82.86
2023-03-02T16:52:36.843Z,81.57
2023-03-02T16:57:39.621Z,79.20
2023-03-02T17:02:48.260Z,77.04
2023-03-02T17:07:51.178Z,77.29
2023-03-02T17:12:53.887Z,78.43
2023-03-02T17:17:56.669Z,79.53
2023-03-02T17:22:59.372Z,79.56
2023-03-02T17:28:02.034Z,79.85
2023-03-02T17:33:04.858Z,78.44
2023-03-02T17:38:07.627Z,77.05
2023-03-02T17:43:17.829Z,75.33
2023-03-02T17:48:25.628Z,76.07
2023-03-02T17:53:37.793Z,77.53
2023-03-02T17:58:45.044Z,77.68
2023-03-02T18:03:48.225Z,77.47
2023-03-02T18:08:54.376Z,77.57
2023-03-02T18:13:58.308Z,77.06
2023-03-02T18:19:00.948Z,77.52
2023-03-02T18:24:04.461Z,77.53
2023-03-02T18:29:07.282Z,77.54
2023-03-02T18:34:09.998Z,77.80
2023-03-02T18:39:14.555Z,78.51
2023-03-02T18:44:18.149Z,78.55
2023-03-02T18:49:20.894Z,79.08
2023-03-02T18:54:24.762Z,78.95
2023-03-02T18:59:29.074Z,78.52
2023-03-02T19:04:31.908Z,78.68
2023-03-02T19:09:35.242Z,78.33
2023-03-02T19:14:38.172Z,77.63
2023-03-02T19:19:43.515Z,77.54
2023-03-02T19:24:47.212Z,76.08
2023-03-02T19:29:49.866Z,75.24
2023-03-02T19:34:52.740Z,73.38
2023-03-02T19:39:55.398Z,72.46
2023-03-02T19:44:58.159Z,75.26
2023-03-02T19:50:00.851Z,78.16
2023-03-02T19:55:07.176Z,82.01
2023-03-02T20:00:14.997Z,84.18
2023-03-02T20:05:17.832Z,84.19
2023-03-02T20:10:28.526Z,82.08
2023-03-02T20:15:34.400Z,80.33
2023-03-02T20:20:37.293Z,79.36
2023-03-02T20:25:40.555Z,78.14
2023-03-02T20:30:46.852Z,77.33
2023-03-02T20:35:50.225Z,75.74
2023-03-02T20:40:52.928Z,74.14
2023-03-02T20:45:55.793Z,71.96
2023-03-02T20:50:59.065Z,71.20
2023-03-02T20:56:01.980Z,70.99
2023-03-02T21:01:04.891Z,70.67
2023-03-02T21:06:08.183Z,70.51
2023-03-02T21:11:16.133Z,70.08
2023-03-02T21:16:24.908Z,70.00
2023-03-02T21:21:40.735Z,70.62
2023-03-02T21:26:49.044Z,70.67
2023-03-02T21:31:51.972Z,71.30
2023-03-02T21:36:54.871Z,71.30
2023-03-02T21:41:57.615Z,71.14
2023-03-02T21:47:00.298Z,71.73
2023-03-02T21:52:03.103Z,71.19
2023-03-02T21:57:05.867Z,70.54
2023-03-02T22:02:08.748Z,70.06
2023-03-02T22:07:11.565Z,68.85
2023-03-02T22:12:15.034Z,68.83
2023-03-02T22:17:21.354Z,68.71
2023-03-02T22:22:27.258Z,69.06
2023-03-02T22:27:31.811Z,69.68
2023-03-02T22:32:37.017Z,69.46
2023-03-02T22:37:40.128Z,70.25
2023-03-02T22:42:42.857Z,70.50
2023-03-02T22:47:49.478Z,70.35
2023-03-02T22:52:53.386Z,69.46
2023-03-02T22:57:56.182Z,69.80
2023-03-02T23:02:59.019Z,69.43
2023-03-02T23:08:19.003Z,69.40
2023-03-02T23:13:27.216Z,69.88
2023-03-02T23:18:30.742Z,69.86
2023-03-02T23:23:35.247Z,69.37
2023-03-02T23:28:38.062Z,69.36
2023-03-02T23:33:41.188Z,69.61
2023-03-02T23:38:43.870Z,69.38
2023-03-02T23:43:46.637Z,69.54
2023-03-02T23:48:49.452Z,68.97
2023-03-02T23:53:55.387Z,68.64
2023-03-02T23:58:58.050Z,68.37
